Newton Grove, North Carolina
Current Conditions -  °F | °C
As of 6:55 PM on Saturday 22 Nov 2014 (Local Time) from KCTZ Reporting Station
Clear Clear  
Wind Chill: 41°   Ceiling: Unl
Heat Index: 41°   Visibility: 10mi
Dew Point: 31°   Wind: 0mph
Humidity: 68%   Direction: NA
Pressure: 30.38"   Gusts: NA
Location:  35.25°N, 78.35°W
Report Text: KCTZ 222355Z AUTO 00000KT 10SM CLR 05/M01 A3038 RMK AO2 T00491006 10146 20049
Loading
Personal Weather Stations






























Interactive Weather Map New forecast layout! Learn more

10-Day Weather Forecast

Advertisements
Track Severe Weather on mobile